Broadway, Washington
Current Conditions -  °F | °C
As of 12:53 PM on Friday 31 Oct 2014 (Local Time) from KBFI Reporting Station
Overcast Overcast  
Wind Chill: 54°   Ceiling: 3900
Heat Index: 54°   Visibility: 10mi
Dew Point: 49°   Wind: 7mph
Humidity: 83%   Direction: NA
Pressure: 29.82"   Gusts: NA
Location:  47.6341°N, 122.322°W
Report Text: KBFI 311953Z VRB06KT 10SM SCT011 OVC039 12/09 A2982 RMK AO2 RAB02E26 SLP097 P0001 T01220094
Loading
Personal Weather Stations






























Interactive Weather Map
Tropical Storm Tracking
New forecast layout! Learn more

10-Day Weather Forecast

Advertisements
Track Severe Weather on mobile